Time,TemperatureF,DewpointF,PressureIn,WindDirection,WindDirectionDegrees,WindSpeedMPH,WindSpeedGustMPH,Humidity,HourlyPrecipIn,Conditions,Clouds,dailyrainin,SoftwareType,DateUTC
2013-02-14 00:06:00,31.9,17.0,30.04,NNE,30,4.0,9.0,54,0.00,,,0.00,weatherlink.com 1.10,2013-02-14 07:06:00,
2013-02-14 00:21:00,31.3,17.0,30.05,NNE,30,3.0,6.0,55,0.00,,,0.00,weatherlink.com 1.10,2013-02-14 07:21:00,
2013-02-14 00:37:00,31.2,17.0,30.04,NNE,30,5.0,8.0,56,0.00,,,0.00,weatherlink.com 1.10,2013-02-14 07:37:00,
2013-02-14 00:52:00,31.2,17.0,30.04,NNE,30,3.0,8.0,56,0.00,,,0.00,weatherlink.com 1.10,2013-02-14 07:52:00,
2013-02-14 01:07:00,31.6,17.0,30.04,NNE,28,7.0,9.0,56,0.00,,,0.00,weatherlink.com 1.10,2013-02-14 08:07:00,
2013-02-14 01:22:00,31.3,18.0,30.05,NNE,13,8.0,12.0,57,0.00,,,0.00,weatherlink.com 1.10,2013-02-14 08:22:00,
2013-02-14 01:37:00,31.2,18.0,30.05,NE,34,7.0,15.0,58,0.00,,,0.00,weatherlink.com 1.10,2013-02-14 08:37:00,
2013-02-14 01:52:00,29.7,18.0,30.05,NNE,32,5.0,9.0,61,0.00,,,0.00,weatherlink.com 1.10,2013-02-14 08:52:00,
2013-02-14 02:07:00,29.1,20.0,30.05,NNE,32,5.0,6.0,68,0.00,,,0.00,weatherlink.com 1.10,2013-02-14 09:07:00,
2013-02-14 02:22:00,28.6,20.0,30.05,NNE,32,0.0,4.0,71,0.00,,,0.00,weatherlink.com 1.10,2013-02-14 09:22:00,
2013-02-14 02:37:00,27.9,20.0,30.05,NNE,32,0.0,3.0,72,0.00,,,0.00,weatherlink.com 1.10,2013-02-14 09:37:00,
2013-02-14 02:52:00,26.9,19.0,30.05,NNE,32,3.0,4.0,72,0.00,,,0.00,weatherlink.com 1.10,2013-02-14 09:52:00,
2013-02-14 03:07:00,26.4,19.0,30.04,NNE,32,0.0,3.0,73,0.00,,,0.00,weatherlink.com 1.10,2013-02-14 10:07:00,
2013-02-14 03:22:00,26.4,19.0,30.04,NNE,32,2.0,3.0,74,0.00,,,0.00,weatherlink.com 1.10,2013-02-14 10:22:00,
2013-02-14 03:37:00,27.2,20.0,30.03,NNE,32,1.0,3.0,73,0.00,,,0.00,weatherlink.com 1.10,2013-02-14 10:37:00,
2013-02-14 03:52:00,27.2,18.0,30.04,NNE,32,0.0,3.0,69,0.00,,,0.00,weatherlink.com 1.10,2013-02-14 10:52:00,
2013-02-14 04:07:00,26.5,19.0,30.03,NNE,32,0.0,4.0,73,0.00,,,0.00,weatherlink.com 1.10,2013-02-14 11:07:00,
2013-02-14 04:22:00,26.3,18.0,30.03,NNE,32,1.0,4.0,72,0.00,,,0.00,weatherlink.com 1.10,2013-02-14 11:22:00,
2013-02-14 04:37:00,26.4,19.0,30.03,NNE,32,0.0,4.0,74,0.00,,,0.00,weatherlink.com 1.10,2013-02-14 11:37:00,
2013-02-14 04:52:00,26.2,19.0,30.04,NNE,32,1.0,4.0,73,0.00,,,0.00,weatherlink.com 1.10,2013-02-14 11:52:00,
2013-02-14 05:07:00,25.9,19.0,30.04,NNE,32,1.0,3.0,74,0.00,,,0.00,weatherlink.com 1.10,2013-02-14 12:07:00,
2013-02-14 05:22:00,25.7,18.0,30.03,NNE,32,0.0,4.0,74,0.00,,,0.00,weatherlink.com 1.10,2013-02-14 12:22:00,
2013-02-14 05:37:00,26.4,19.0,30.03,NNE,32,1.0,3.0,73,0.00,,,0.00,weatherlink.com 1.10,2013-02-14 12:37:00,
2013-02-14 05:52:00,26.1,18.0,30.03,NNE,32,2.0,4.0,72,0.00,,,0.00,weatherlink.com 1.10,2013-02-14 12:52:00,
2013-02-14 06:07:00,25.1,18.0,30.04,WSW,248,1.0,6.0,73,0.00,,,0.00,weatherlink.com 1.10,2013-02-14 13:07:00,
2013-02-14 06:22:00,26.1,18.0,30.03,SW,215,4.0,6.0,71,0.00,,,0.00,weatherlink.com 1.10,2013-02-14 13:22:00,
2013-02-14 06:37:00,24.9,17.0,30.05,NE,40,2.0,4.0,73,0.00,,,0.00,weatherlink.com 1.10,2013-02-14 13:37:00,
2013-02-14 06:52:00,23.9,18.0,30.05,West,267,3.0,7.0,77,0.00,,,0.00,weatherlink.com 1.10,2013-02-14 13:52:00,
2013-02-14 07:07:00,24.8,18.0,30.06,WSW,244,4.0,7.0,75,0.00,,,0.00,weatherlink.com 1.10,2013-02-14 14:07:00,
2013-02-14 07:22:00,25.6,18.0,30.06,West,263,4.0,5.0,74,0.00,,,0.00,weatherlink.com 1.10,2013-02-14 14:22:00,
2013-02-14 07:37:00,25.5,18.0,30.06,West,263,2.0,5.0,74,0.00,,,0.00,weatherlink.com 1.10,2013-02-14 14:37:00,
2013-02-14 07:52:00,27.8,19.0,30.07,West,263,0.0,5.0,69,0.00,,,0.00,weatherlink.com 1.10,2013-02-14 14:52:00,
2013-02-14 08:07:00,28.4,18.0,30.07,West,263,0.0,4.0,66,0.00,,,0.00,weatherlink.com 1.10,2013-02-14 15:07:00,
2013-02-14 08:22:00,30.5,20.0,30.08,WNW,288,3.0,6.0,64,0.00,,,0.00,weatherlink.com 1.10,2013-02-14 15:22:00,
2013-02-14 08:37:00,30.5,21.0,30.10,NE,56,3.0,9.0,67,0.00,,,0.00,weatherlink.com 1.10,2013-02-14 15:37:00,
2013-02-14 08:52:00,28.3,22.0,30.11,ENE,63,8.0,11.0,76,0.00,,,0.00,weatherlink.com 1.10,2013-02-14 15:52:00,
2013-02-14 09:07:00,28.9,22.0,30.12,North,360,8.0,12.0,75,0.00,,,0.00,weatherlink.com 1.10,2013-02-14 16:07:00,
2013-02-14 09:23:00,30.4,23.0,30.13,NE,47,6.0,10.0,74,0.00,,,0.00,weatherlink.com 1.10,2013-02-14 16:23:00,
2013-02-14 09:38:00,32.6,24.0,30.14,NE,52,9.0,11.0,70,0.00,,,0.00,weatherlink.com 1.10,2013-02-14 16:38:00,
2013-02-14 09:53:00,32.0,24.0,30.15,NE,36,7.0,15.0,71,0.00,,,0.00,weatherlink.com 1.10,2013-02-14 16:53:00,
2013-02-14 10:08:00,32.1,24.0,30.17,NNE,17,13.0,17.0,72,0.00,,,0.00,weatherlink.com 1.10,2013-02-14 17:08:00,
2013-02-14 10:23:00,33.8,25.0,30.18,NNE,26,6.0,14.0,70,0.00,,,0.00,weatherlink.com 1.10,2013-02-14 17:23:00,
2013-02-14 10:38:00,28.9,23.0,30.20,North,10,17.0,25.0,79,0.00,,,0.00,weatherlink.com 1.10,2013-02-14 17:38:00,
2013-02-14 10:53:00,25.0,23.0,30.22,NE,43,14.0,21.0,92,0.00,,,0.00,weatherlink.com 1.10,2013-02-14 17:53:00,
2013-02-14 11:08:00,24.8,24.0,30.24,NE,40,9.0,17.0,95,0.00,,,0.00,weatherlink.com 1.10,2013-02-14 18:08:00,
2013-02-14 11:23:00,25.3,24.0,30.25,NNE,31,9.0,16.0,94,0.00,,,0.00,weatherlink.com 1.10,2013-02-14 18:23:00,
2013-02-14 11:38:00,26.1,24.0,30.25,NNE,23,5.0,13.0,92,0.00,,,0.00,weatherlink.com 1.10,2013-02-14 18:38:00,
2013-02-14 11:53:00,26.5,23.0,30.27,North,5,6.0,13.0,88,0.00,,,0.00,weatherlink.com 1.10,2013-02-14 18:53:00,
2013-02-14 12:08:00,26.0,24.0,30.27,ENE,65,7.0,12.0,90,0.00,,,0.00,weatherlink.com 1.10,2013-02-14 19:08:00,
2013-02-14 12:23:00,25.3,23.0,30.27,NE,46,4.0,10.0,90,0.00,,,0.00,weatherlink.com 1.10,2013-02-14 19:23:00,
2013-02-14 12:38:00,25.4,23.0,30.28,NNE,28,6.0,11.0,92,0.00,,,0.00,weatherlink.com 1.10,2013-02-14 19:38:00,
2013-02-14 12:53:00,25.6,24.0,30.28,NE,56,4.0,9.0,93,0.00,,,0.00,weatherlink.com 1.10,2013-02-14 19:53:00,
2013-02-14 13:08:00,25.6,24.0,30.28,ENE,69,4.0,9.0,93,0.00,,,0.00,weatherlink.com 1.10,2013-02-14 20:08:00,
2013-02-14 13:23:00,24.9,24.0,30.28,ENE,57,3.0,8.0,94,0.00,,,0.00,weatherlink.com 1.10,2013-02-14 20:23:00,
2013-02-14 13:38:00,25.4,24.0,30.28,NE,34,4.0,9.0,94,0.00,,,0.00,weatherlink.com 1.10,2013-02-14 20:38:00,
2013-02-14 13:53:00,25.6,24.0,30.28,NE,48,4.0,5.0,93,0.00,,,0.00,weatherlink.com 1.10,2013-02-14 20:53:00,
2013-02-14 14:08:00,25.0,24.0,30.29,ENE,58,3.0,4.0,94,0.00,,,0.00,weatherlink.com 1.10,2013-02-14 21:08:00,
2013-02-14 14:23:00,24.9,24.0,30.30,ENE,60,3.0,4.0,95,0.00,,,0.00,weatherlink.com 1.10,2013-02-14 21:23:00,
2013-02-14 14:38:00,25.3,24.0,30.31,ENE,60,0.0,3.0,93,0.00,,,0.00,weatherlink.com 1.10,2013-02-14 21:38:00,
2013-02-14 14:53:00,25.7,24.0,30.31,ENE,58,0.0,3.0,94,0.00,,,0.00,weatherlink.com 1.10,2013-02-14 21:53:00,
2013-02-14 15:08:00,25.2,24.0,30.31,ESE,104,3.0,7.0,93,0.00,,,0.00,weatherlink.com 1.10,2013-02-14 22:08:00,
2013-02-14 15:23:00,25.0,23.0,30.32,ESE,123,7.0,9.0,93,0.00,,,0.00,weatherlink.com 1.10,2013-02-14 22:23:00,
2013-02-14 15:38:00,25.2,24.0,30.33,SE,137,5.0,7.0,95,0.00,,,0.00,weatherlink.com 1.10,2013-02-14 22:38:00,
2013-02-14 15:53:00,25.5,24.0,30.33,SE,136,4.0,8.0,93,0.00,,,0.00,weatherlink.com 1.10,2013-02-14 22:53:00,
2013-02-14 16:08:00,25.1,23.0,30.34,SE,145,3.0,7.0,91,0.00,,,0.00,weatherlink.com 1.10,2013-02-14 23:08:00,
2013-02-14 16:23:00,24.7,24.0,30.34,SSE,153,5.0,9.0,95,0.00,,,0.00,weatherlink.com 1.10,2013-02-14 23:23:00,
2013-02-14 16:38:00,24.2,22.0,30.35,SSE,165,5.0,9.0,92,0.00,,,0.00,weatherlink.com 1.10,2013-02-14 23:38:00,
2013-02-14 16:53:00,24.1,23.0,30.35,SSW,201,5.0,7.0,95,0.00,,,0.00,weatherlink.com 1.10,2013-02-14 23:53:00,
2013-02-14 17:08:00,23.7,23.0,30.35,SSW,208,6.0,8.0,96,0.00,,,0.00,weatherlink.com 1.10,2013-02-15 00:08:00,
2013-02-14 17:23:00,23.5,23.0,30.36,SE,133,3.0,6.0,96,0.00,,,0.00,weatherlink.com 1.10,2013-02-15 00:23:00,
2013-02-14 17:38:00,23.1,22.0,30.36,SE,133,3.0,4.0,97,0.00,,,0.00,weatherlink.com 1.10,2013-02-15 00:38:00,
2013-02-14 17:53:00,22.8,22.0,30.36,SE,133,0.0,0.0,96,0.00,,,0.00,weatherlink.com 1.10,2013-02-15 00:53:00,
2013-02-14 18:08:00,22.6,22.0,30.37,SE,133,0.0,3.0,97,0.00,,,0.00,weatherlink.com 1.10,2013-02-15 01:08:00,
2013-02-14 18:39:00,22.3,21.0,30.38,WSW,246,7.0,7.0,94,0.00,,,0.00,weatherlink.com 1.10,2013-02-15 01:39:00,
2013-02-14 18:54:00,22.0,20.0,30.38,WSW,244,5.0,8.0,93,0.00,,,0.00,weatherlink.com 1.10,2013-02-15 01:54:00,
2013-02-14 19:09:00,21.7,20.0,30.39,WSW,246,6.0,9.0,92,0.00,,,0.00,weatherlink.com 1.10,2013-02-15 02:09:00,
2013-02-14 19:24:00,21.3,19.0,30.39,WSW,248,5.0,8.0,92,0.00,,,0.00,weatherlink.com 1.10,2013-02-15 02:24:00,
2013-02-14 19:39:00,20.8,19.0,30.39,WSW,244,5.0,8.0,91,0.00,,,0.00,weatherlink.com 1.10,2013-02-15 02:39:00,
2013-02-14 19:54:00,20.5,19.0,30.39,WSW,244,5.0,7.0,92,0.00,,,0.00,weatherlink.com 1.10,2013-02-15 02:54:00,
2013-02-14 20:09:00,20.6,19.0,30.39,WSW,244,7.0,8.0,92,0.00,,,0.00,weatherlink.com 1.10,2013-02-15 03:09:00,
2013-02-14 20:24:00,20.7,19.0,30.40,WSW,246,4.0,7.0,91,0.00,,,0.00,weatherlink.com 1.10,2013-02-15 03:24:00,
2013-02-14 20:39:00,20.9,18.0,30.40,WSW,246,6.0,7.0,89,0.00,,,0.00,weatherlink.com 1.10,2013-02-15 03:39:00,
2013-02-14 20:54:00,21.1,18.0,30.39,WSW,244,5.0,7.0,88,0.00,,,0.00,weatherlink.com 1.10,2013-02-15 03:54:00,
2013-02-14 21:09:00,21.0,18.0,30.39,WSW,244,5.0,6.0,87,0.00,,,0.00,weatherlink.com 1.10,2013-02-15 04:09:00,
2013-02-14 21:24:00,21.5,19.0,30.39,SSE,157,3.0,4.0,90,0.00,,,0.00,weatherlink.com 1.10,2013-02-15 04:24:00,
2013-02-14 21:39:00,21.4,18.0,30.39,SSE,157,2.0,4.0,88,0.00,,,0.00,weatherlink.com 1.10,2013-02-15 04:39:00,
2013-02-14 21:54:00,21.3,18.0,30.39,SSE,157,0.0,3.0,87,0.00,,,0.00,weatherlink.com 1.10,2013-02-15 04:54:00,
2013-02-14 22:09:00,20.9,17.0,30.39,SSE,157,1.0,3.0,86,0.00,,,0.00,weatherlink.com 1.10,2013-02-15 05:09:00,
2013-02-14 22:24:00,21.0,18.0,30.40,SSE,157,2.0,3.0,86,0.00,,,0.00,weatherlink.com 1.10,2013-02-15 05:24:00,
2013-02-14 22:39:00,20.9,17.0,30.39,SSE,157,4.0,5.0,86,0.00,,,0.00,weatherlink.com 1.10,2013-02-15 05:39:00,
2013-02-14 22:54:00,20.6,17.0,30.40,SSE,157,0.0,3.0,86,0.00,,,0.00,weatherlink.com 1.10,2013-02-15 05:54:00,
2013-02-14 23:09:00,20.4,17.0,30.40,SSE,157,3.0,4.0,86,0.00,,,0.00,weatherlink.com 1.10,2013-02-15 06:09:00,
2013-02-14 23:24:00,20.7,17.0,30.40,SSE,157,1.0,3.0,87,0.00,,,0.00,weatherlink.com 1.10,2013-02-15 06:24:00,
2013-02-14 23:39:00,21.0,18.0,30.41,SSE,157,0.0,0.0,87,0.00,,,0.00,weatherlink.com 1.10,2013-02-15 06:39:00,
2013-02-14 23:54:00,21.1,18.0,30.41,SSE,157,0.0,0.0,88,0.00,,,0.00,weatherlink.com 1.10,2013-02-15 06:54:00,